createdAt,value
2019-02-08T00:03:12.379Z,94.03
2019-02-08T00:06:35.879Z,97.63
2019-02-08T00:09:59.635Z,95.17
2019-02-08T00:13:23.314Z,90.57
2019-02-08T00:16:47.007Z,80.57
2019-02-08T00:20:13.748Z,82.60
2019-02-08T00:23:37.324Z,90.33
2019-02-08T00:27:01.100Z,88.00
2019-02-08T00:30:27.002Z,88.13
2019-02-08T00:33:51.105Z,85.37
2019-02-08T00:37:14.750Z,64.87
2019-02-08T00:40:38.441Z,85.33
2019-02-08T00:44:02.047Z,85.90
2019-02-08T00:47:26.208Z,82.20
2019-02-08T00:50:50.022Z,83.67
2019-02-08T00:54:14.168Z,89.43
2019-02-08T00:57:37.859Z,77.07
2019-02-08T01:01:01.416Z,80.80
2019-02-08T01:04:25.121Z,91.90
2019-02-08T01:07:48.890Z,84.47
2019-02-08T01:11:12.474Z,86.90
2019-02-08T01:14:36.322Z,88.57
2019-02-08T01:18:00.222Z,79.73
2019-02-08T01:21:24.006Z,79.10
2019-02-08T01:24:47.720Z,86.50
2019-02-08T01:28:11.445Z,78.93
2019-02-08T01:31:35.282Z,78.63
2019-02-08T01:34:58.869Z,86.40
2019-02-08T01:38:22.463Z,80.33
2019-02-08T01:41:47.696Z,92.00
2019-02-08T01:45:14.844Z,90.30
2019-02-08T01:48:38.591Z,91.73
2019-02-08T01:52:02.274Z,93.47
2019-02-08T01:55:26.671Z,104.70
2019-02-08T01:58:50.346Z,135.00
2019-02-08T02:02:14.464Z,99.00
2019-02-08T02:05:38.673Z,101.07
2019-02-08T02:09:02.746Z,92.30
2019-02-08T02:12:26.827Z,103.30
2019-02-08T02:15:50.465Z,203.77
2019-02-08T02:19:14.058Z,133.57
2019-02-08T02:22:37.826Z,128.43
2019-02-08T02:26:01.630Z,122.10
2019-02-08T02:29:26.325Z,100.63
2019-02-08T02:32:49.896Z,99.63
2019-02-08T02:36:13.568Z,91.30
2019-02-08T02:39:37.210Z,94.27
2019-02-08T02:43:00.792Z,110.50
2019-02-08T02:46:24.926Z,107.93
2019-02-08T02:49:48.854Z,113.93
2019-02-08T02:53:12.692Z,124.50
2019-02-08T02:56:36.505Z,106.27
2019-02-08T03:00:00.344Z,144.20
2019-02-08T03:03:24.009Z,145.67
2019-02-08T03:06:47.688Z,204.57
2019-02-08T03:10:14.460Z,88.00
2019-02-08T03:13:38.205Z,73.83
2019-02-08T03:17:02.195Z,80.97
2019-02-08T03:20:25.839Z,87.97
2019-02-08T03:23:49.745Z,84.33
2019-02-08T03:27:13.397Z,81.10
2019-02-08T03:30:53.472Z,83.93
2019-02-08T03:34:17.055Z,84.57
2019-02-08T03:37:40.842Z,77.73
2019-02-08T03:41:04.468Z,84.67
2019-02-08T03:44:28.184Z,79.67
2019-02-08T03:47:51.848Z,68.60
2019-02-08T03:51:15.423Z,52.63
2019-02-08T03:54:39.038Z,80.30
2019-02-08T03:58:02.753Z,86.97
2019-02-08T04:01:26.438Z,61.83
2019-02-08T04:04:50.208Z,76.63
2019-02-08T04:08:14.026Z,77.13
2019-02-08T04:11:37.697Z,69.07
2019-02-08T04:15:01.704Z,45.43
2019-02-08T04:18:25.297Z,92.83
2019-02-08T04:21:48.815Z,90.57
2019-02-08T04:25:14.888Z,94.33
2019-02-08T04:28:38.593Z,85.03
2019-02-08T04:32:02.303Z,91.37
2019-02-08T04:35:26.045Z,63.23
2019-02-08T04:38:49.703Z,55.50
2019-02-08T04:42:13.283Z,92.97
2019-02-08T04:45:37.151Z,60.00
2019-02-08T04:49:00.755Z,79.60
2019-02-08T04:52:24.455Z,98.23
2019-02-08T04:55:48.250Z,97.63
2019-02-08T04:59:11.718Z,106.90
2019-02-08T05:02:35.466Z,63.97
2019-02-08T05:05:59.532Z,99.57
2019-02-08T05:09:23.365Z,89.33
2019-02-08T05:12:47.091Z,101.17
2019-02-08T05:16:11.121Z,93.90
2019-02-08T05:19:34.633Z,100.43
2019-02-08T05:22:58.518Z,100.23
2019-02-08T05:26:22.265Z,115.47
2019-02-08T05:29:45.806Z,111.60
2019-02-08T05:33:09.297Z,114.93
2019-02-08T05:36:33.008Z,111.80
2019-02-08T05:39:56.704Z,101.60
2019-02-08T05:43:20.321Z,97.27
2019-02-08T05:46:44.306Z,100.13
2019-02-08T05:50:25.694Z,102.50
2019-02-08T05:53:50.435Z,100.73
2019-02-08T05:57:13.926Z,101.30
2019-02-08T06:00:43.122Z,104.13
2019-02-08T06:04:06.853Z,101.93
2019-02-08T06:07:30.535Z,101.33
2019-02-08T06:10:54.262Z,93.17
2019-02-08T06:14:17.849Z,99.80
2019-02-08T06:17:41.780Z,98.73
2019-02-08T06:21:05.382Z,86.00
2019-02-08T06:24:28.953Z,98.37
2019-02-08T06:27:52.518Z,93.87
2019-02-08T06:31:16.256Z,87.33
2019-02-08T06:34:41.344Z,91.70
2019-02-08T06:38:05.269Z,96.87
2019-02-08T06:41:29.003Z,114.37
2019-02-08T06:44:52.663Z,111.47
2019-02-08T06:48:16.241Z,117.43
2019-02-08T06:51:40.145Z,107.93
2019-02-08T06:55:10.815Z,118.03
2019-02-08T06:58:37.846Z,125.87
2019-02-08T07:02:14.798Z,117.33
2019-02-08T07:05:59.698Z,103.67
2019-02-08T07:09:27.745Z,89.37
2019-02-08T07:13:11.415Z,95.03
2019-02-08T07:16:37.568Z,92.50
2019-02-08T07:20:10.663Z,89.60
2019-02-08T07:23:48.090Z,91.00
2019-02-08T07:27:16.664Z,97.13
2019-02-08T07:30:44.691Z,84.83
2019-02-08T07:34:24.495Z,80.00
2019-02-08T07:38:00.188Z,80.53
2019-02-08T07:41:37.425Z,65.67
2019-02-08T07:45:05.062Z,75.97
2019-02-08T07:48:36.204Z,71.63
2019-02-08T07:52:13.580Z,79.03
2019-02-08T07:55:44.603Z,69.60
2019-02-08T07:59:26.349Z,73.10
2019-02-08T08:02:51.615Z,70.63
2019-02-08T08:06:32.850Z,68.73
2019-02-08T08:10:06.966Z,61.93
2019-02-08T08:13:35.149Z,69.40
2019-02-08T08:17:12.076Z,69.97
2019-02-08T08:20:52.343Z,64.97
2019-02-08T08:24:29.911Z,65.70
2019-02-08T08:28:13.070Z,67.37
2019-02-08T08:31:47.568Z,63.83
2019-02-08T08:35:44.345Z,64.87
2019-02-08T08:39:26.450Z,70.13
2019-02-08T08:43:15.236Z,64.83
2019-02-08T08:46:54.373Z,70.73
2019-02-08T08:50:27.053Z,59.27
2019-02-08T08:54:25.865Z,70.13
2019-02-08T08:58:04.343Z,54.63
2019-02-08T09:01:42.919Z,63.03
2019-02-08T09:05:27.404Z,60.03
2019-02-08T09:08:57.106Z,59.57
2019-02-08T09:12:52.404Z,50.53
2019-02-08T09:16:50.970Z,63.83
2019-02-08T09:20:32.355Z,60.63
2019-02-08T09:24:10.926Z,70.30
2019-02-08T09:27:49.710Z,61.70
2019-02-08T09:31:28.271Z,60.87
2019-02-08T09:35:03.931Z,65.43
2019-02-08T09:39:05.039Z,67.83
2019-02-08T09:43:00.540Z,67.93
2019-02-08T09:46:30.323Z,59.93
2019-02-08T09:50:30.558Z,68.80
2019-02-08T09:54:18.271Z,68.37
2019-02-08T09:57:53.917Z,64.50
2019-02-08T10:01:46.725Z,64.93
2019-02-08T10:05:34.430Z,66.27
2019-02-08T10:09:16.305Z,59.77
2019-02-08T10:13:16.355Z,67.77
2019-02-08T10:16:52.231Z,65.20
2019-02-08T10:20:33.639Z,62.50
2019-02-08T10:24:06.363Z,60.00
2019-02-08T10:27:51.267Z,64.43
2019-02-08T10:31:27.056Z,62.57
2019-02-08T10:35:17.975Z,53.27
2019-02-08T10:39:07.358Z,56.37
2019-02-08T10:42:45.908Z,52.17
2019-02-08T10:46:27.585Z,53.33
2019-02-08T10:50:26.780Z,50.90
2019-02-08T10:54:29.257Z,51.67
2019-02-08T10:58:28.071Z,49.73
2019-02-08T11:02:09.682Z,48.57
2019-02-08T11:05:52.850Z,50.13
2019-02-08T11:09:48.384Z,55.70
2019-02-08T11:13:17.831Z,51.10
2019-02-08T11:17:05.840Z,54.33
2019-02-08T11:20:29.460Z,50.73
2019-02-08T11:23:53.130Z,50.53
2019-02-08T11:27:16.660Z,48.87
2019-02-08T11:30:40.243Z,57.97
2019-02-08T11:34:03.948Z,51.87
2019-02-08T11:37:27.523Z,50.63
2019-02-08T11:40:51.358Z,46.13
2019-02-08T11:44:15.080Z,53.17
2019-02-08T11:47:38.755Z,50.27
2019-02-08T11:51:02.400Z,46.97
2019-02-08T11:54:26.311Z,43.23
2019-02-08T11:57:49.988Z,49.30
2019-02-08T12:01:13.643Z,38.90
2019-02-08T12:04:37.339Z,41.70
2019-02-08T12:08:01.050Z,43.43
2019-02-08T12:11:24.766Z,44.07
2019-02-08T12:14:48.463Z,40.77
2019-02-08T12:18:12.358Z,41.50
2019-02-08T12:21:36.345Z,41.23
2019-02-08T12:25:00.018Z,47.00
2019-02-08T12:28:23.543Z,48.03
2019-02-08T12:31:47.118Z,39.73
2019-02-08T12:35:11.219Z,44.57
2019-02-08T12:38:35.008Z,47.27
2019-02-08T12:41:58.943Z,42.90
2019-02-08T12:45:22.734Z,42.37
2019-02-08T12:48:48.608Z,46.97
2019-02-08T12:52:12.154Z,47.03
2019-02-08T12:55:35.863Z,46.20
2019-02-08T12:58:59.511Z,43.80
2019-02-08T13:02:22.985Z,41.37
2019-02-08T13:05:46.688Z,47.27
2019-02-08T13:09:10.568Z,48.37
2019-02-08T13:12:34.242Z,45.13
2019-02-08T13:15:57.826Z,45.37
2019-02-08T13:19:21.964Z,44.37
2019-02-08T13:22:46.895Z,44.27
2019-02-08T13:26:10.866Z,43.27
2019-02-08T13:29:34.465Z,44.67
2019-02-08T13:32:58.282Z,42.97
2019-02-08T13:36:22.219Z,40.97
2019-02-08T13:39:45.907Z,39.13
2019-02-08T13:43:09.646Z,42.13
2019-02-08T13:46:33.430Z,37.87
2019-02-08T13:49:57.293Z,37.77
2019-02-08T13:53:25.099Z,41.00
2019-02-08T13:56:49.165Z,38.30
2019-02-08T14:00:18.928Z,41.07
2019-02-08T14:03:42.365Z,41.27
2019-02-08T14:07:06.014Z,40.87
2019-02-08T14:10:29.698Z,41.03
2019-02-08T14:13:53.411Z,44.00
2019-02-08T14:17:17.183Z,43.87
2019-02-08T14:20:40.969Z,38.73
2019-02-08T14:24:04.568Z,41.43
2019-02-08T14:27:28.321Z,38.67
2019-02-08T14:30:51.964Z,38.63
2019-02-08T14:34:15.521Z,38.33
2019-02-08T14:37:39.008Z,43.90
2019-02-08T14:41:02.723Z,40.73
2019-02-08T14:44:26.755Z,40.90
2019-02-08T14:47:50.545Z,52.73
2019-02-08T14:51:15.181Z,56.47
2019-02-08T14:54:38.625Z,57.63
2019-02-08T14:58:04.883Z,63.73
2019-02-08T15:01:28.536Z,60.73
2019-02-08T15:04:52.341Z,65.00
2019-02-08T15:08:15.818Z,70.33
2019-02-08T15:11:39.608Z,77.70
2019-02-08T15:15:03.152Z,81.80
2019-02-08T15:18:27.349Z,90.40
2019-02-08T15:21:51.555Z,81.03
2019-02-08T15:25:15.186Z,84.37
2019-02-08T15:28:38.845Z,94.80
2019-02-08T15:32:02.864Z,82.83
2019-02-08T15:35:28.514Z,86.63
2019-02-08T15:38:52.143Z,91.27
2019-02-08T15:42:15.776Z,87.37
2019-02-08T15:45:40.209Z,89.90
2019-02-08T15:49:04.308Z,95.80
2019-02-08T15:52:30.831Z,105.40
2019-02-08T15:56:00.295Z,106.00
2019-02-08T15:59:24.033Z,109.07
2019-02-08T16:02:48.961Z,136.00
2019-02-08T16:06:13.038Z,156.10
2019-02-08T16:09:36.786Z,199.07
2019-02-08T16:13:00.473Z,291.30
2019-02-08T16:16:24.141Z,179.67
2019-02-08T16:19:47.753Z,184.57
2019-02-08T16:23:11.831Z,223.03
2019-02-08T16:26:35.694Z,183.57
2019-02-08T16:29:59.874Z,199.13
2019-02-08T16:33:23.592Z,165.57
2019-02-08T16:36:47.066Z,209.23
2019-02-08T16:40:19.281Z,197.17
2019-02-08T16:43:42.917Z,170.90
2019-02-08T16:47:06.544Z,170.13
2019-02-08T16:50:32.790Z,171.83
2019-02-08T16:53:56.490Z,179.10
2019-02-08T16:57:20.594Z,179.27
2019-02-08T17:00:44.349Z,204.87
2019-02-08T17:04:08.609Z,256.20
2019-02-08T17:07:32.733Z,208.57
2019-02-08T17:10:56.385Z,250.10
2019-02-08T17:14:20.553Z,225.33
2019-02-08T17:17:44.130Z,184.67
2019-02-08T17:21:07.905Z,198.33
2019-02-08T17:24:33.344Z,210.97
2019-02-08T17:27:57.424Z,251.03
2019-02-08T17:31:21.093Z,268.40
2019-02-08T17:34:45.256Z,253.13
2019-02-08T17:38:09.034Z,234.63
2019-02-08T17:41:32.721Z,226.50
2019-02-08T17:44:56.386Z,246.40
2019-02-08T17:48:20.166Z,218.33
2019-02-08T17:51:43.688Z,211.67
2019-02-08T17:55:12.522Z,225.10
2019-02-08T17:58:36.046Z,215.47
2019-02-08T18:01:59.698Z,213.10
2019-02-08T18:05:23.517Z,232.80
2019-02-08T18:08:47.320Z,201.57
2019-02-08T18:12:10.821Z,172.27
2019-02-08T18:15:34.643Z,187.07
2019-02-08T18:18:58.633Z,208.27
2019-02-08T18:22:22.501Z,231.40
2019-02-08T18:25:46.828Z,197.40
2019-02-08T18:29:14.309Z,229.03
2019-02-08T18:32:38.123Z,213.30
2019-02-08T18:36:02.033Z,338.13
2019-02-08T18:39:26.006Z,356.70
2019-02-08T18:42:49.988Z,392.00
2019-02-08T18:46:13.884Z,349.83
2019-02-08T18:49:39.510Z,320.20
2019-02-08T18:53:03.261Z,320.47
2019-02-08T18:56:28.890Z,328.53
2019-02-08T18:59:52.776Z,343.97
2019-02-08T19:03:18.027Z,382.57
2019-02-08T19:06:42.147Z,452.57
2019-02-08T19:10:08.990Z,550.30
2019-02-08T19:13:32.803Z,489.30
2019-02-08T19:16:56.845Z,675.93
2019-02-08T19:20:25.905Z,518.97
2019-02-08T19:23:49.602Z,543.77
2019-02-08T19:27:13.546Z,489.03
2019-02-08T19:30:42.175Z,499.77
2019-02-08T19:34:12.134Z,634.90
2019-02-08T19:37:39.221Z,869.83
2019-02-08T19:41:04.897Z,311.30
2019-02-08T19:44:28.612Z,290.47
2019-02-08T19:47:52.396Z,294.43
2019-02-08T19:51:17.805Z,316.37
2019-02-08T19:54:43.512Z,307.27
2019-02-08T19:58:08.569Z,349.33
2019-02-08T20:01:32.217Z,375.77
2019-02-08T20:05:02.337Z,350.00
2019-02-08T20:08:27.905Z,375.03
2019-02-08T20:11:51.744Z,414.37
2019-02-08T20:15:19.958Z,437.67
2019-02-08T20:18:45.966Z,402.93
2019-02-08T20:22:10.232Z,457.07
2019-02-08T20:25:36.097Z,483.97
2019-02-08T20:29:00.002Z,536.03
2019-02-08T20:32:23.633Z,528.03
2019-02-08T20:35:47.409Z,473.67
2019-02-08T20:39:11.256Z,490.97
2019-02-08T20:42:35.085Z,421.57
2019-02-08T20:45:58.737Z,403.40
2019-02-08T20:49:22.932Z,403.63
2019-02-08T20:52:46.604Z,432.37
2019-02-08T20:56:10.384Z,497.93
2019-02-08T20:59:34.769Z,477.03
2019-02-08T21:02:59.446Z,478.67
2019-02-08T21:06:23.156Z,481.67
2019-02-08T21:09:46.970Z,506.23
2019-02-08T21:13:10.943Z,549.63
2019-02-08T21:16:34.947Z,584.90
2019-02-08T21:19:58.555Z,547.87
2019-02-08T21:23:23.140Z,515.67
2019-02-08T21:26:46.927Z,535.83
2019-02-08T21:30:15.157Z,499.33
2019-02-08T21:33:38.664Z,548.67
2019-02-08T21:37:02.703Z,544.47
2019-02-08T21:40:27.761Z,455.33
2019-02-08T21:43:51.427Z,467.57
2019-02-08T21:47:14.969Z,491.43
2019-02-08T21:50:38.714Z,450.03
2019-02-08T21:54:04.657Z,511.77
2019-02-08T21:57:28.441Z,504.37
2019-02-08T22:00:52.111Z,515.80
2019-02-08T22:04:15.851Z,526.37
2019-02-08T22:07:39.520Z,534.70
2019-02-08T22:11:03.603Z,541.20
2019-02-08T22:14:27.073Z,555.87
2019-02-08T22:17:50.895Z,545.77
2019-02-08T22:21:14.658Z,559.10
2019-02-08T22:24:38.261Z,546.97
2019-02-08T22:28:01.883Z,552.77
2019-02-08T22:31:25.444Z,613.43
2019-02-08T22:34:49.096Z,560.20
2019-02-08T22:38:12.694Z,565.10
2019-02-08T22:41:36.219Z,540.13
2019-02-08T22:45:08.430Z,495.63
2019-02-08T22:48:25.328Z,540.33
2019-02-08T22:51:49.281Z,519.77
2019-02-08T22:55:15.739Z,543.37
2019-02-08T22:58:39.470Z,544.07
2019-02-08T23:02:03.984Z,521.53
2019-02-08T23:05:27.465Z,519.33
2019-02-08T23:08:51.358Z,485.27
2019-02-08T23:12:14.856Z,482.00
2019-02-08T23:15:38.492Z,469.73
2019-02-08T23:19:02.143Z,436.37
2019-02-08T23:22:26.260Z,476.67
2019-02-08T23:25:49.985Z,521.43
2019-02-08T23:29:13.477Z,465.70
2019-02-08T23:32:37.899Z,487.13
2019-02-08T23:36:01.567Z,458.00
2019-02-08T23:39:25.449Z,430.97
2019-02-08T23:42:48.983Z,431.33
2019-02-08T23:46:12.540Z,419.63
2019-02-08T23:49:36.493Z,447.67
2019-02-08T23:53:00.161Z,414.60
2019-02-08T23:56:23.937Z,420.43
2019-02-08T23:59:47.416Z,426.43
